sensor_id;sensor_type;location;lat;lon;timestamp;pressure;altitude;pressure_sealevel;temperature;humidity
11440;BME280;5776;51.814;4.510;2023-03-14T00:02:00;98930.25;;;10.63;100.00
11440;BME280;5776;51.814;4.510;2023-03-14T00:04:26;98931.88;;;10.64;100.00
11440;BME280;5776;51.814;4.510;2023-03-14T00:06:52;98924.41;;;10.61;100.00
11440;BME280;5776;51.814;4.510;2023-03-14T00:09:17;98921.69;;;10.61;100.00
11440;BME280;5776;51.814;4.510;2023-03-14T00:11:43;98927.44;;;10.59;100.00
11440;BME280;5776;51.814;4.510;2023-03-14T00:14:09;98924.72;;;10.59;100.00
11440;BME280;5776;51.814;4.510;2023-03-14T00:16:35;98922.00;;;10.59;100.00
11440;BME280;5776;51.814;4.510;2023-03-14T00:19:01;98932.06;;;10.59;100.00
11440;BME280;5776;51.814;4.510;2023-03-14T00:21:27;98929.69;;;10.57;100.00
11440;BME280;5776;51.814;4.510;2023-03-14T00:23:53;98922.69;;;10.56;100.00
11440;BME280;5776;51.814;4.510;2023-03-14T00:26:20;98928.09;;;10.56;100.00
11440;BME280;5776;51.814;4.510;2023-03-14T00:28:50;98927.31;;;10.56;100.00
11440;BME280;5776;51.814;4.510;2023-03-14T00:31:16;98918.38;;;10.55;100.00
11440;BME280;5776;51.814;4.510;2023-03-14T00:33:43;98934.22;;;10.53;100.00
11440;BME280;5776;51.814;4.510;2023-03-14T00:36:17;98929.56;;;10.54;100.00
11440;BME280;5776;51.814;4.510;2023-03-14T00:38:44;98934.22;;;10.53;100.00
11440;BME280;5776;51.814;4.510;2023-03-14T00:41:13;98950.50;;;10.53;100.00
11440;BME280;5776;51.814;4.510;2023-03-14T00:43:39;98946.97;;;10.53;100.00
11440;BME280;5776;51.814;4.510;2023-03-14T00:46:06;98958.19;;;10.51;100.00
11440;BME280;5776;51.814;4.510;2023-03-14T00:48:32;98957.38;;;10.51;100.00
11440;BME280;5776;51.814;4.510;2023-03-14T00:50:58;98959.28;;;10.50;100.00
11440;BME280;5776;51.814;4.510;2023-03-14T00:53:24;98947.63;;;10.50;100.00
11440;BME280;5776;51.814;4.510;2023-03-14T00:55:50;98956.13;;;10.48;100.00
11440;BME280;5776;51.814;4.510;2023-03-14T00:58:17;98937.44;;;10.47;100.00
11440;BME280;5776;51.814;4.510;2023-03-14T01:00:45;98938.56;;;10.46;100.00
11440;BME280;5776;51.814;4.510;2023-03-14T01:03:12;98932.34;;;10.45;100.00
11440;BME280;5776;51.814;4.510;2023-03-14T01:05:38;98926.91;;;10.45;100.00
11440;BME280;5776;51.814;4.510;2023-03-14T01:08:05;98923.75;;;10.43;100.00
11440;BME280;5776;51.814;4.510;2023-03-14T01:10:33;98925.66;;;10.43;100.00
11440;BME280;5776;51.814;4.510;2023-03-14T01:12:59;98931.44;;;10.41;100.00
11440;BME280;5776;51.814;4.510;2023-03-14T01:15:25;98931.44;;;10.41;100.00
11440;BME280;5776;51.814;4.510;2023-03-14T01:17:51;98938.44;;;10.42;100.00
11440;BME280;5776;51.814;4.510;2023-03-14T01:20:17;98942.31;;;10.41;100.00
11440;BME280;5776;51.814;4.510;2023-03-14T01:22:44;98939.91;;;10.40;100.00
11440;BME280;5776;51.814;4.510;2023-03-14T01:25:13;98954.25;;;10.40;100.00
11440;BME280;5776;51.814;4.510;2023-03-14T01:27:39;98943.75;;;10.38;100.00
11440;BME280;5776;51.814;4.510;2023-03-14T01:30:06;98942.16;;;10.37;100.00
11440;BME280;5776;51.814;4.510;2023-03-14T01:32:34;98930.50;;;10.37;100.00
11440;BME280;5776;51.814;4.510;2023-03-14T01:35:00;98932.09;;;10.38;100.00
11440;BME280;5776;51.814;4.510;2023-03-14T01:37:26;98935.94;;;10.37;100.00
11440;BME280;5776;51.814;4.510;2023-03-14T01:39:52;98924.31;;;10.36;100.00
11440;BME280;5776;51.814;4.510;2023-03-14T01:42:18;98917.25;;;10.35;100.00
11440;BME280;5776;51.814;4.510;2023-03-14T01:44:53;98909.47;;;10.34;100.00
11440;BME280;5776;51.814;4.510;2023-03-14T01:47:20;98916.47;;;10.35;100.00
11440;BME280;5776;51.814;4.510;2023-03-14T01:50:02;98925.75;;;10.34;100.00
11440;BME280;5776;51.814;4.510;2023-03-14T01:52:33;98916.00;;;10.33;100.00
11440;BME280;5776;51.814;4.510;2023-03-14T01:55:09;98911.72;;;10.32;100.00
11440;BME280;5776;51.814;4.510;2023-03-14T01:57:40;98914.44;;;10.32;100.00
11440;BME280;5776;51.814;4.510;2023-03-14T02:00:09;98910.94;;;10.31;100.00
11440;BME280;5776;51.814;4.510;2023-03-14T02:02:45;98908.53;;;10.30;100.00
11440;BME280;5776;51.814;4.510;2023-03-14T02:05:15;98906.97;;;10.29;100.00
11440;BME280;5776;51.814;4.510;2023-03-14T02:07:47;98900.41;;;10.30;100.00
11440;BME280;5776;51.814;4.510;2023-03-14T02:10:16;98897.22;;;10.28;100.00
11440;BME280;5776;51.814;4.510;2023-03-14T02:12:45;98898.84;;;10.29;100.00
11440;BME280;5776;51.814;4.510;2023-03-14T02:15:12;98895.31;;;10.28;100.00
11440;BME280;5776;51.814;4.510;2023-03-14T02:17:40;98889.41;;;10.26;100.00
11440;BME280;5776;51.814;4.510;2023-03-14T02:22:35;98884.31;;;10.25;100.00
11440;BME280;5776;51.814;4.510;2023-03-14T02:25:27;98885.44;;;10.24;100.00
11440;BME280;5776;51.814;4.510;2023-03-14T02:27:56;98883.84;;;10.23;100.00
11440;BME280;5776;51.814;4.510;2023-03-14T02:30:28;98883.50;;;10.24;100.00
11440;BME280;5776;51.814;4.510;2023-03-14T02:33:16;98880.34;;;10.22;100.00
11440;BME280;5776;51.814;4.510;2023-03-14T02:35:59;98878.75;;;10.21;100.00
11440;BME280;5776;51.814;4.510;2023-03-14T02:38:37;98865.53;;;10.20;100.00
11440;BME280;5776;51.814;4.510;2023-03-14T02:41:05;98864.72;;;10.19;100.00
11440;BME280;5776;51.814;4.510;2023-03-14T02:43:31;98865.53;;;10.20;100.00
11440;BME280;5776;51.814;4.510;2023-03-14T02:45:58;98873.34;;;10.21;100.00
11440;BME280;5776;51.814;4.510;2023-03-14T02:48:28;98864.38;;;10.21;100.00
11440;BME280;5776;51.814;4.510;2023-03-14T02:50:57;98861.22;;;10.19;100.00
11440;BME280;5776;51.814;4.510;2023-03-14T02:53:32;98856.91;;;10.17;100.00
11440;BME280;5776;51.814;4.510;2023-03-14T02:55:58;98860.09;;;10.20;100.00
11440;BME280;5776;51.814;4.510;2023-03-14T02:58:25;98858.50;;;10.19;100.00
11440;BME280;5776;51.814;4.510;2023-03-14T03:00:51;98860.09;;;10.20;100.00
11440;BME280;5776;51.814;4.510;2023-03-14T03:03:17;98857.69;;;10.18;100.00
11440;BME280;5776;51.814;4.510;2023-03-14T03:05:48;98848.44;;;10.19;100.00
11440;BME280;5776;51.814;4.510;2023-03-14T03:08:14;98844.13;;;10.18;100.00
11440;BME280;5776;51.814;4.510;2023-03-14T03:10:40;98848.00;;;10.17;100.00
11440;BME280;5776;51.814;4.510;2023-03-14T03:13:06;98844.50;;;10.16;100.00
11440;BME280;5776;51.814;4.510;2023-03-14T03:15:31;98842.09;;;10.15;100.00
11440;BME280;5776;51.814;4.510;2023-03-14T03:17:57;98840.53;;;10.14;100.00
11440;BME280;5776;51.814;4.510;2023-03-14T03:20:23;98841.31;;;10.14;100.00
11440;BME280;5776;51.814;4.510;2023-03-14T03:22:49;98834.16;;;10.10;100.00
11440;BME280;5776;51.814;4.510;2023-03-14T03:25:16;98843.56;;;10.12;100.00
11440;BME280;5776;51.814;4.510;2023-03-14T03:27:42;98844.69;;;10.11;100.00
11440;BME280;5776;51.814;4.510;2023-03-14T03:30:08;98847.72;;;10.10;100.00
11440;BME280;5776;51.814;4.510;2023-03-14T03:32:34;98837.22;;;10.08;100.00
11440;BME280;5776;51.814;4.510;2023-03-14T03:35:02;98843.09;;;10.10;100.00
11440;BME280;5776;51.814;4.510;2023-03-14T03:37:30;98848.09;;;10.08;100.00
11440;BME280;5776;51.814;4.510;2023-03-14T03:39:56;98848.53;;;10.10;100.00
11440;BME280;5776;51.814;4.510;2023-03-14T03:42:22;98849.34;;;10.11;100.00
11440;BME280;5776;51.814;4.510;2023-03-14T03:44:48;98847.72;;;10.10;100.00
11440;BME280;5776;51.814;4.510;2023-03-14T03:47:15;98846.16;;;10.09;100.00
11440;BME280;5776;51.814;4.510;2023-03-14T03:49:41;98848.09;;;10.08;100.00
11440;BME280;5776;51.814;4.510;2023-03-14T03:52:07;98847.25;;;10.08;100.00
11440;BME280;5776;51.814;4.510;2023-03-14T03:54:34;98849.19;;;10.07;100.00
11440;BME280;5776;51.814;4.510;2023-03-14T03:57:00;98841.06;;;10.07;100.00
11440;BME280;5776;51.814;4.510;2023-03-14T03:59:26;98841.06;;;10.07;100.00
11440;BME280;5776;51.814;4.510;2023-03-14T04:01:52;98835.97;;;10.06;100.00
11440;BME280;5776;51.814;4.510;2023-03-14T04:04:18;98837.88;;;10.05;100.00
11440;BME280;5776;51.814;4.510;2023-03-14T04:06:44;98841.72;;;10.04;100.00
11440;BME280;5776;51.814;4.510;2023-03-14T04:09:11;98838.53;;;10.02;100.00
11440;BME280;5776;51.814;4.510;2023-03-14T04:11:36;98838.53;;;10.02;100.00
11440;BME280;5776;51.814;4.510;2023-03-14T04:14:04;98834.72;;;10.03;100.00
11440;BME280;5776;51.814;4.510;2023-03-14T04:16:30;98836.28;;;10.04;100.00
11440;BME280;5776;51.814;4.510;2023-03-14T04:19:00;98833.13;;;10.02;100.00
11440;BME280;5776;51.814;4.510;2023-03-14T04:21:26;98830.88;;;10.04;100.00
11440;BME280;5776;51.814;4.510;2023-03-14T04:23:52;98833.13;;;10.02;100.00
11440;BME280;5776;51.814;4.510;2023-03-14T04:26:18;98828.47;;;10.03;100.00
11440;BME280;5776;51.814;4.510;2023-03-14T04:28:44;98826.13;;;10.01;100.00
11440;BME280;5776;51.814;4.510;2023-03-14T04:31:13;98830.41;;;10.02;100.00
11440;BME280;5776;51.814;4.510;2023-03-14T04:33:39;98825.34;;;10.01;100.00
11440;BME280;5776;51.814;4.510;2023-03-14T04:36:08;98818.31;;;10.00;100.00
11440;BME280;5776;51.814;4.510;2023-03-14T04:38:35;98815.28;;;10.01;100.00
11440;BME280;5776;51.814;4.510;2023-03-14T04:41:01;98825.66;;;9.99;100.00
11440;BME280;5776;51.814;4.510;2023-03-14T04:43:27;98820.22;;;9.99;100.00
11440;BME280;5776;51.814;4.510;2023-03-14T04:45:55;98819.09;;;10.00;100.00
11440;BME280;5776;51.814;4.510;2023-03-14T04:48:21;98819.44;;;9.99;100.00
11440;BME280;5776;51.814;4.510;2023-03-14T04:50:47;98822.94;;;9.99;100.00
11440;BME280;5776;51.814;4.510;2023-03-14T04:53:14;98825.19;;;9.97;100.00
11440;BME280;5776;51.814;4.510;2023-03-14T04:55:40;98816.72;;;9.99;100.00
11440;BME280;5776;51.814;4.510;2023-03-14T04:58:06;98823.63;;;9.96;100.00
11440;BME280;5776;51.814;4.510;2023-03-14T05:00:32;98815.47;;;9.96;100.00
11440;BME280;5776;51.814;4.510;2023-03-14T05:02:58;98818.50;;;9.94;100.00
11440;BME280;5776;51.814;4.510;2023-03-14T05:05:24;98810.38;;;9.94;100.00
11440;BME280;5776;51.814;4.510;2023-03-14T05:07:50;98810.38;;;9.94;100.00
11440;BME280;5776;51.814;4.510;2023-03-14T05:10:16;98811.16;;;9.95;100.00
11440;BME280;5776;51.814;4.510;2023-03-14T05:12:42;98809.25;;;9.95;100.00
11440;BME280;5776;51.814;4.510;2023-03-14T05:15:09;98823.94;;;9.94;100.00
11440;BME280;5776;51.814;4.510;2023-03-14T05:17:36;98818.41;;;9.91;100.00
11440;BME280;5776;51.814;4.510;2023-03-14T05:20:02;98814.56;;;9.92;100.00
11440;BME280;5776;51.814;4.510;2023-03-14T05:22:34;98820.44;;;9.94;100.00
11440;BME280;5776;51.814;4.510;2023-03-14T05:25:00;98812.97;;;9.91;100.00
11440;BME280;5776;51.814;4.510;2023-03-14T05:27:26;98807.56;;;9.91;100.00
11440;BME280;5776;51.814;4.510;2023-03-14T05:29:52;98797.81;;;9.90;100.00
11440;BME280;5776;51.814;4.510;2023-03-14T05:32:18;98809.78;;;9.89;100.00
11440;BME280;5776;51.814;4.510;2023-03-14T05:34:44;98804.38;;;9.89;100.00
11440;BME280;5776;51.814;4.510;2023-03-14T05:37:10;98808.66;;;9.90;100.00
11440;BME280;5776;51.814;4.510;2023-03-14T05:39:36;98810.91;;;9.88;100.00
11440;BME280;5776;51.814;4.510;2023-03-14T05:42:02;98810.91;;;9.88;100.00
11440;BME280;5776;51.814;4.510;2023-03-14T05:44:28;98805.03;;;9.86;100.00
11440;BME280;5776;51.814;4.510;2023-03-14T05:46:53;98835.66;;;9.86;100.00
11440;BME280;5776;51.814;4.510;2023-03-14T05:49:19;98856.56;;;9.86;100.00
11440;BME280;5776;51.814;4.510;2023-03-14T05:51:45;98889.09;;;9.86;100.00
11440;BME280;5776;51.814;4.510;2023-03-14T05:54:11;98899.13;;;9.85;100.00
11440;BME280;5776;51.814;4.510;2023-03-14T05:56:37;98914.47;;;9.81;100.00
11440;BME280;5776;51.814;4.510;2023-03-14T05:59:03;98917.03;;;9.78;100.00
11440;BME280;5776;51.814;4.510;2023-03-14T06:01:29;98921.34;;;9.79;100.00
11440;BME280;5776;51.814;4.510;2023-03-14T06:03:55;98934.28;;;9.73;100.00
11440;BME280;5776;51.814;4.510;2023-03-14T06:06:21;98933.50;;;9.72;100.00
11440;BME280;5776;51.814;4.510;2023-03-14T06:08:47;98939.91;;;9.68;100.00
11440;BME280;5776;51.814;4.510;2023-03-14T06:11:12;98937.06;;;9.64;100.00
11440;BME280;5776;51.814;4.510;2023-03-14T06:13:38;98947.25;;;9.67;100.00
11440;BME280;5776;51.814;4.510;2023-03-14T06:16:05;98952.66;;;9.67;100.00
11440;BME280;5776;51.814;4.510;2023-03-14T06:18:31;98960.00;;;9.67;100.00
11440;BME280;5776;51.814;4.510;2023-03-14T06:20:57;98974.34;;;9.67;100.00
11440;BME280;5776;51.814;4.510;2023-03-14T06:23:24;98974.34;;;9.67;100.00
11440;BME280;5776;51.814;4.510;2023-03-14T06:25:50;98982.16;;;9.69;100.00
11440;BME280;5776;51.814;4.510;2023-03-14T06:28:17;98987.44;;;9.65;100.00
11440;BME280;5776;51.814;4.510;2023-03-14T06:30:43;98993.66;;;9.66;100.00
11440;BME280;5776;51.814;4.510;2023-03-14T06:33:09;99001.63;;;9.62;100.00
11440;BME280;5776;51.814;4.510;2023-03-14T06:35:35;99010.56;;;9.63;100.00
11440;BME280;5776;51.814;4.510;2023-03-14T06:38:02;99019.03;;;9.61;100.00
11440;BME280;5776;51.814;4.510;2023-03-14T06:40:28;99027.16;;;9.61;100.00
11440;BME280;5776;51.814;4.510;2023-03-14T06:42:54;99035.13;;;9.58;100.00
11440;BME280;5776;51.814;4.510;2023-03-14T06:45:21;99042.81;;;9.56;100.00
11440;BME280;5776;51.814;4.510;2023-03-14T06:47:46;99063.69;;;9.55;100.00
11440;BME280;5776;51.814;4.510;2023-03-14T06:50:13;99067.69;;;9.49;100.00
11440;BME280;5776;51.814;4.510;2023-03-14T06:52:39;99074.38;;;9.51;100.00
11440;BME280;5776;51.814;4.510;2023-03-14T06:55:16;99085.72;;;9.54;100.00
11440;BME280;5776;51.814;4.510;2023-03-14T06:57:43;99095.28;;;9.51;100.00
11440;BME280;5776;51.814;4.510;2023-03-14T07:00:10;99098.00;;;9.51;100.00
11440;BME280;5776;51.814;4.510;2023-03-14T07:02:36;99104.50;;;9.50;100.00
11440;BME280;5776;51.814;4.510;2023-03-14T07:05:02;99113.78;;;9.49;100.00
11440;BME280;5776;51.814;4.510;2023-03-14T07:07:29;99112.50;;;9.46;100.00
11440;BME280;5776;51.814;4.510;2023-03-14T07:09:55;99126.53;;;9.40;100.00
11440;BME280;5776;51.814;4.510;2023-03-14T07:12:20;99142.13;;;9.43;100.00
11440;BME280;5776;51.814;4.510;2023-03-14T07:14:46;99158.41;;;9.43;100.00
11440;BME280;5776;51.814;4.510;2023-03-14T07:17:12;99164.63;;;9.43;100.00
11440;BME280;5776;51.814;4.510;2023-03-14T07:19:38;99166.06;;;9.41;100.00
11440;BME280;5776;51.814;4.510;2023-03-14T07:22:05;99172.28;;;9.41;100.00
11440;BME280;5776;51.814;4.510;2023-03-14T07:24:31;99174.19;;;9.32;100.00
11440;BME280;5776;51.814;4.510;2023-03-14T07:26:57;99185.81;;;9.33;100.00
11440;BME280;5776;51.814;4.510;2023-03-14T07:29:23;99191.88;;;9.29;100.00
11440;BME280;5776;51.814;4.510;2023-03-14T07:31:49;99201.63;;;9.30;100.00
11440;BME280;5776;51.814;4.510;2023-03-14T07:34:15;99210.22;;;9.24;100.00
11440;BME280;5776;51.814;4.510;2023-03-14T07:36:41;99222.81;;;9.28;100.00
11440;BME280;5776;51.814;4.510;2023-03-14T07:39:07;99227.44;;;9.28;100.00
11440;BME280;5776;51.814;4.510;2023-03-14T07:41:33;99229.31;;;9.27;100.00
11440;BME280;5776;51.814;4.510;2023-03-14T07:43:58;99245.13;;;9.25;100.00
11440;BME280;5776;51.814;4.510;2023-03-14T07:46:24;99251.66;;;9.24;100.00
11440;BME280;5776;51.814;4.510;2023-03-14T07:48:50;99261.50;;;9.20;100.00
11440;BME280;5776;51.814;4.510;2023-03-14T07:51:16;99266.13;;;9.20;100.00
11440;BME280;5776;51.814;4.510;2023-03-14T07:53:42;99262.31;;;9.21;100.00
11440;BME280;5776;51.814;4.510;2023-03-14T07:56:09;99273.47;;;9.19;100.00
11440;BME280;5776;51.814;4.510;2023-03-14T07:58:35;99282.72;;;9.18;100.00
11440;BME280;5776;51.814;4.510;2023-03-14T08:01:00;99299.44;;;9.20;100.00
11440;BME280;5776;51.814;4.510;2023-03-14T08:03:26;99302.97;;;9.21;100.00
11440;BME280;5776;51.814;4.510;2023-03-14T08:05:53;99306.47;;;9.21;100.00
11440;BME280;5776;51.814;4.510;2023-03-14T08:08:19;99321.78;;;9.26;100.00
11440;BME280;5776;51.814;4.510;2023-03-14T08:10:45;99325.56;;;9.25;100.00
11440;BME280;5776;51.814;4.510;2023-03-14T08:13:12;99341.34;;;9.23;100.00
11440;BME280;5776;51.814;4.510;2023-03-14T08:15:38;99347.88;;;9.22;100.00
11440;BME280;5776;51.814;4.510;2023-03-14T08:18:04;99368.13;;;9.24;100.00
11440;BME280;5776;51.814;4.510;2023-03-14T08:20:31;99380.25;;;9.27;100.00
11440;BME280;5776;51.814;4.510;2023-03-14T08:22:58;99394.94;;;9.35;100.00
11440;BME280;5776;51.814;4.510;2023-03-14T08:25:24;99403.56;;;9.37;100.00
11440;BME280;5776;51.814;4.510;2023-03-14T08:28:08;99419.81;;;9.37;100.00
11440;BME280;5776;51.814;4.510;2023-03-14T08:30:34;99431.91;;;9.30;100.00
11440;BME280;5776;51.814;4.510;2023-03-14T08:33:00;99447.03;;;9.32;100.00
11440;BME280;5776;51.814;4.510;2023-03-14T08:35:26;99466.00;;;9.32;100.00
11440;BME280;5776;51.814;4.510;2023-03-14T08:37:52;99486.91;;;9.31;100.00
11440;BME280;5776;51.814;4.510;2023-03-14T08:40:18;99500.75;;;9.29;100.00
11440;BME280;5776;51.814;4.510;2023-03-14T08:42:45;99511.56;;;9.29;100.00
11440;BME280;5776;51.814;4.510;2023-03-14T08:45:13;99526.25;;;9.28;100.00
11440;BME280;5776;51.814;4.510;2023-03-14T08:47:40;99529.75;;;9.29;100.00
11440;BME280;5776;51.814;4.510;2023-03-14T08:50:07;99535.31;;;9.24;100.00
11440;BME280;5776;51.814;4.510;2023-03-14T08:52:33;99541.34;;;9.21;100.00
11440;BME280;5776;51.814;4.510;2023-03-14T08:54:59;99558.88;;;9.23;100.00
11440;BME280;5776;51.814;4.510;2023-03-14T08:57:25;99570.81;;;9.22;100.00
11440;BME280;5776;51.814;4.510;2023-03-14T08:59:54;99563.81;;;9.21;100.00
11440;BME280;5776;51.814;4.510;2023-03-14T09:02:21;99581.66;;;9.22;100.00
11440;BME280;5776;51.814;4.510;2023-03-14T09:04:50;99594.09;;;9.23;100.00
11440;BME280;5776;51.814;4.510;2023-03-14T09:07:16;99614.16;;;9.22;100.00
11440;BME280;5776;51.814;4.510;2023-03-14T09:09:42;99628.63;;;9.18;100.00
11440;BME280;5776;51.814;4.510;2023-03-14T09:12:08;99640.28;;;9.18;100.00
11440;BME280;5776;51.814;4.510;2023-03-14T09:14:34;99644.22;;;9.12;100.00
11440;BME280;5776;51.814;4.510;2023-03-14T09:17:00;99660.16;;;9.14;100.00
11440;BME280;5776;51.814;4.510;2023-03-14T09:19:26;99663.38;;;9.16;100.00
11440;BME280;5776;51.814;4.510;2023-03-14T09:21:52;99665.59;;;9.14;100.00
11440;BME280;5776;51.814;4.510;2023-03-14T09:24:18;99684.72;;;9.17;100.00
11440;BME280;5776;51.814;4.510;2023-03-14T09:26:44;99687.44;;;9.17;100.00
11440;BME280;5776;51.814;4.510;2023-03-14T09:29:10;99700.97;;;9.17;100.00
11440;BME280;5776;51.814;4.510;2023-03-14T09:31:35;99699.69;;;9.15;100.00
11440;BME280;5776;51.814;4.510;2023-03-14T09:34:01;99715.63;;;9.16;100.00
11440;BME280;5776;51.814;4.510;2023-03-14T09:36:27;99722.34;;;9.19;100.00
11440;BME280;5776;51.814;4.510;2023-03-14T09:38:53;99732.41;;;9.18;100.00
11440;BME280;5776;51.814;4.510;2023-03-14T09:41:33;99742.13;;;9.19;100.00
11440;BME280;5776;51.814;4.510;2023-03-14T09:44:09;99743.22;;;9.18;100.00
11440;BME280;5776;51.814;4.510;2023-03-14T09:46:37;99760.28;;;9.19;100.00
11440;BME280;5776;51.814;4.510;2023-03-14T09:49:11;99768.09;;;9.20;100.00
11440;BME280;5776;51.814;4.510;2023-03-14T09:51:38;99767.91;;;9.17;100.00
11440;BME280;5776;51.814;4.510;2023-03-14T09:54:05;99781.66;;;8.93;100.00
11440;BME280;5776;51.814;4.510;2023-03-14T09:56:32;99795.03;;;8.61;100.00
11440;BME280;5776;51.814;4.510;2023-03-14T09:59:05;99804.84;;;8.57;100.00
11440;BME280;5776;51.814;4.510;2023-03-14T10:01:35;99814.47;;;8.63;100.00
11440;BME280;5776;51.814;4.510;2023-03-14T10:04:06;99829.50;;;8.70;100.00
11440;BME280;5776;51.814;4.510;2023-03-14T10:06:35;99836.31;;;8.67;100.00
11440;BME280;5776;51.814;4.510;2023-03-14T10:09:02;99843.66;;;8.67;100.00
11440;BME280;5776;51.814;4.510;2023-03-14T10:11:28;99863.72;;;8.65;100.00
11440;BME280;5776;51.814;4.510;2023-03-14T10:14:08;99884.34;;;8.61;100.00
11440;BME280;5776;51.814;4.510;2023-03-14T10:16:40;99885.06;;;8.67;100.00
11440;BME280;5776;51.814;4.510;2023-03-14T10:19:10;99883.47;;;8.66;100.00
11440;BME280;5776;51.814;4.510;2023-03-14T10:21:42;99889.06;;;8.70;100.00
11440;BME280;5776;51.814;4.510;2023-03-14T10:24:26;99902.09;;;8.68;100.00
11440;BME280;5776;51.814;4.510;2023-03-14T10:26:55;99908.34;;;8.68;100.00
11440;BME280;5776;51.814;4.510;2023-03-14T10:29:21;99916.13;;;8.70;100.00
11440;BME280;5776;51.814;4.510;2023-03-14T10:32:12;99934.00;;;8.71;100.00
11440;BME280;5776;51.814;4.510;2023-03-14T10:34:37;99934.19;;;8.74;100.00
11440;BME280;5776;51.814;4.510;2023-03-14T10:37:15;99961.28;;;8.74;100.00
11440;BME280;5776;51.814;4.510;2023-03-14T10:39:51;99961.28;;;8.74;100.00
11440;BME280;5776;51.814;4.510;2023-03-14T10:42:24;99975.91;;;8.73;100.00
11440;BME280;5776;51.814;4.510;2023-03-14T10:44:58;99981.91;;;8.70;100.00
11440;BME280;5776;51.814;4.510;2023-03-14T10:47:27;99991.41;;;8.68;100.00
11440;BME280;5776;51.814;4.510;2023-03-14T10:49:54;100008.56;;;8.63;100.00
11440;BME280;5776;51.814;4.510;2023-03-14T10:52:28;100019.16;;;8.59;100.00
11440;BME280;5776;51.814;4.510;2023-03-14T10:55:01;100029.28;;;8.54;100.00
11440;BME280;5776;51.814;4.510;2023-03-14T10:57:28;100034.59;;;8.59;100.00
11440;BME280;5776;51.814;4.510;2023-03-14T10:59:55;100047.47;;;8.67;100.00
11440;BME280;5776;51.814;4.510;2023-03-14T11:05:41;100061.88;;;8.62;100.00
11440;BME280;5776;51.814;4.510;2023-03-14T11:08:15;100064.91;;;8.61;100.00
11440;BME280;5776;51.814;4.510;2023-03-14T11:10:48;100084.22;;;8.54;100.00
11440;BME280;5776;51.814;4.510;2023-03-14T11:13:24;100092.25;;;8.59;100.00
11440;BME280;5776;51.814;4.510;2023-03-14T11:16:12;100088.22;;;8.57;100.00
11440;BME280;5776;51.814;4.510;2023-03-14T11:21:43;100104.25;;;8.53;100.00
11440;BME280;5776;51.814;4.510;2023-03-14T11:27:06;100120.72;;;8.57;100.00
11440;BME280;5776;51.814;4.510;2023-03-14T11:29:40;100131.97;;;8.64;100.00
11440;BME280;5776;51.814;4.510;2023-03-14T11:32:17;100129.72;;;8.71;100.00
11440;BME280;5776;51.814;4.510;2023-03-14T11:34:52;100154.59;;;8.73;100.00
11440;BME280;5776;51.814;4.510;2023-03-14T11:37:34;100155.41;;;8.74;100.00
11440;BME280;5776;51.814;4.510;2023-03-14T11:40:18;100168.06;;;8.78;100.00
11440;BME280;5776;51.814;4.510;2023-03-14T11:42:49;100176.91;;;8.84;100.00
11440;BME280;5776;51.814;4.510;2023-03-14T11:45:23;100184.16;;;8.89;100.00
11440;BME280;5776;51.814;4.510;2023-03-14T11:48:06;100177.38;;;8.91;100.00
11440;BME280;5776;51.814;4.510;2023-03-14T11:50:35;100185.78;;;8.90;100.00
11440;BME280;5776;51.814;4.510;2023-03-14T11:53:09;100198.22;;;8.91;100.00
11440;BME280;5776;51.814;4.510;2023-03-14T11:55:39;100208.75;;;8.92;100.00
11440;BME280;5776;51.814;4.510;2023-03-14T11:58:28;100215.50;;;8.95;100.00
11440;BME280;5776;51.814;4.510;2023-03-14T12:00:56;100222.88;;;8.89;100.00
11440;BME280;5776;51.814;4.510;2023-03-14T12:11:11;100234.31;;;8.86;97.86
11440;BME280;5776;51.814;4.510;2023-03-14T12:13:39;100245.13;;;8.86;99.33
11440;BME280;5776;51.814;4.510;2023-03-14T12:16:10;100245.13;;;8.86;97.54
11440;BME280;5776;51.814;4.510;2023-03-14T12:18:45;100236.44;;;8.89;97.81
11440;BME280;5776;51.814;4.510;2023-03-14T12:21:12;100258.38;;;8.87;98.26
11440;BME280;5776;51.814;4.510;2023-03-14T12:23:55;100258.38;;;8.87;98.33
11440;BME280;5776;51.814;4.510;2023-03-14T12:26:24;100268.19;;;8.83;99.04
11440;BME280;5776;51.814;4.510;2023-03-14T12:31:42;100273.88;;;8.82;98.05
11440;BME280;5776;51.814;4.510;2023-03-14T12:42:03;100295.78;;;8.85;97.80
11440;BME280;5776;51.814;4.510;2023-03-14T12:49:40;100314.34;;;8.73;97.27
11440;BME280;5776;51.814;4.510;2023-03-14T12:52:19;100308.88;;;8.78;96.66
11440;BME280;5776;51.814;4.510;2023-03-14T12:55:13;100324.47;;;8.86;95.24
11440;BME280;5776;51.814;4.510;2023-03-14T12:57:45;100327.97;;;8.87;96.09
11440;BME280;5776;51.814;4.510;2023-03-14T13:00:33;100343.44;;;8.86;96.51
11440;BME280;5776;51.814;4.510;2023-03-14T13:03:15;100362.38;;;8.86;97.36
11440;BME280;5776;51.814;4.510;2023-03-14T13:06:00;100358.88;;;8.86;97.27
11440;BME280;5776;51.814;4.510;2023-03-14T13:08:44;100365.63;;;8.89;98.23
11440;BME280;5776;51.814;4.510;2023-03-14T13:11:19;100377.53;;;8.87;98.34
11440;BME280;5776;51.814;4.510;2023-03-14T13:13:48;100386.75;;;8.86;98.04
11440;BME280;5776;51.814;4.510;2023-03-14T13:16:20;100388.88;;;8.90;99.37
11440;BME280;5776;51.814;4.510;2023-03-14T13:19:17;100393.50;;;8.89;98.93
11440;BME280;5776;51.814;4.510;2023-03-14T13:21:44;100414.06;;;8.90;99.87
11440;BME280;5776;51.814;4.510;2023-03-14T13:24:22;100419.25;;;8.86;98.37
11440;BME280;5776;51.814;4.510;2023-03-14T13:26:48;100427.38;;;8.86;98.47
11440;BME280;5776;51.814;4.510;2023-03-14T13:31:52;100442.03;;;8.85;98.58
11440;BME280;5776;51.814;4.510;2023-03-14T13:34:18;100447.13;;;8.87;99.00
11440;BME280;5776;51.814;4.510;2023-03-14T13:36:44;100446.88;;;8.89;98.71
11440;BME280;5776;51.814;4.510;2023-03-14T13:39:16;100463.69;;;8.85;97.93
11440;BME280;5776;51.814;4.510;2023-03-14T13:41:43;100472.88;;;8.84;98.57
11440;BME280;5776;51.814;4.510;2023-03-14T13:44:21;100463.38;;;8.87;99.38
11440;BME280;5776;51.814;4.510;2023-03-14T13:46:50;100470.44;;;8.88;100.00
11440;BME280;5776;51.814;4.510;2023-03-14T13:49:24;100479.94;;;8.85;98.43
11440;BME280;5776;51.814;4.510;2023-03-14T13:51:51;100479.41;;;8.83;99.04
11440;BME280;5776;51.814;4.510;2023-03-14T13:54:18;100491.56;;;8.86;99.60